Time;durP1;ratioP1;P1;durP2;ratioP2;P2;SDS_P1;SDS_P2;PMS_P1;PMS_P2;Temp;Humidity;BMP_temperature;BMP_pressure;BME280_temperature;BME280_humidity;BME280_pressure;Samples;Min_cycle;Max_cycle;Signal;HPM_P1;HPM_P2
2023/07/27 00:00:12;;;;;;;;;;;;;;;17.27;61.00;96465.38;6131847;28;20400;-71
2023/07/27 00:03:14;;;;;;;;;;;;;;;17.27;61.63;96458.25;6148504;28;19926;-70
2023/07/27 00:06:16;;;;;;;;;;;;;;;17.30;61.14;96462.44;6131732;29;19927;-70
2023/07/27 00:09:18;;;;;;;;;;;;;;;17.35;61.59;96469.94;6148103;29;20061;-70
2023/07/27 00:12:22;;;;;;;;;;;;;;;17.39;61.17;96468.66;6148975;28;19927;-71
2023/07/27 00:15:25;;;;;;;;;;;;;;;17.54;61.32;96466.28;6148934;28;19926;-71
2023/07/27 00:18:31;;;;;;;;;;;;;;;17.53;61.79;96467.28;6148964;28;19927;-70
2023/07/27 00:21:32;;;;;;;;;;;;;;;17.54;61.25;96463.63;6131439;29;20380;-70
2023/07/27 00:24:34;;;;;;;;;;;;;;;17.51;61.45;96462.94;6115672;28;19981;-71
2023/07/27 00:27:35;;;;;;;;;;;;;;;17.47;61.62;96464.25;6131234;29;19926;-70
2023/07/27 00:30:35;;;;;;;;;;;;;;;17.46;61.60;96472.38;6148600;28;19973;-71
2023/07/27 00:33:39;;;;;;;;;;;;;;;17.46;61.26;96470.53;6131911;28;19989;-71
2023/07/27 00:36:42;;;;;;;;;;;;;;;17.46;61.50;96473.19;6147748;28;19926;-70
2023/07/27 00:39:45;;;;;;;;;;;;;;;17.45;61.88;96468.03;6148685;28;19941;-70
2023/07/27 00:42:51;;;;;;;;;;;;;;;17.47;61.62;96463.41;6131813;28;20009;-70
2023/07/27 00:45:56;;;;;;;;;;;;;;;17.48;61.87;96465.91;6131642;28;19926;-71
2023/07/27 00:48:57;;;;;;;;;;;;;;;17.50;62.05;96463.94;6148285;28;20050;-71
2023/07/27 00:51:59;;;;;;;;;;;;;;;17.55;61.77;96459.97;6153290;28;20336;-70
2023/07/27 00:55:02;;;;;;;;;;;;;;;17.59;61.71;96461.34;6156334;28;19926;-70
2023/07/27 00:58:06;;;;;;;;;;;;;;;17.63;61.69;96468.03;6155457;28;19927;-70
2023/07/27 01:01:10;;;;;;;;;;;;;;;17.69;61.67;96467.41;6139044;28;19927;-71
2023/07/27 01:04:11;;;;;;;;;;;;;;;17.74;61.50;96465.97;6156253;28;19933;-70
2023/07/27 01:07:16;;;;;;;;;;;;;;;17.80;61.32;96469.88;6156059;28;19993;-70
2023/07/27 01:10:18;;;;;;;;;;;;;;;17.88;60.96;96472.59;6155991;28;20419;-70
2023/07/27 01:13:25;;;;;;;;;;;;;;;17.94;60.92;96466.66;6139428;28;19931;-70
2023/07/27 01:16:33;;;;;;;;;;;;;;;18.01;60.90;96466.03;6155307;28;20012;-71
2023/07/27 01:19:43;;;;;;;;;;;;;;;18.05;61.18;96478.88;6156325;28;19926;-70
2023/07/27 01:22:47;;;;;;;;;;;;;;;18.11;61.03;96482.75;6155293;28;19927;-70
2023/07/27 01:25:48;;;;;;;;;;;;;;;18.19;60.62;96480.13;6156082;28;19922;-69
2023/07/27 01:29:06;;;;;;;;;;;;;;;18.27;60.38;96477.53;6156144;28;19953;-69
2023/07/27 01:32:09;;;;;;;;;;;;;;;18.35;60.54;96485.56;6155239;28;19922;-71
2023/07/27 01:35:15;;;;;;;;;;;;;;;18.42;60.47;96490.25;6155854;28;19927;-70
2023/07/27 01:38:22;;;;;;;;;;;;;;;18.49;60.04;96486.81;6155984;28;19927;-71
2023/07/27 01:41:23;;;;;;;;;;;;;;;18.55;60.13;96501.34;6155283;28;19937;-71
2023/07/27 01:44:28;;;;;;;;;;;;;;;18.60;60.09;96504.38;6133635;28;19927;-70
2023/07/27 01:47:35;;;;;;;;;;;;;;;18.67;60.17;96500.06;6115276;29;19930;-70
2023/07/27 01:50:39;;;;;;;;;;;;;;;18.75;60.19;96508.13;6131443;29;19926;-71
2023/07/27 01:53:45;;;;;;;;;;;;;;;18.82;59.55;96501.19;6115397;29;19927;-70
2023/07/27 01:56:47;;;;;;;;;;;;;;;18.88;60.09;96501.50;6131047;29;20306;-71
2023/07/27 01:59:52;;;;;;;;;;;;;;;18.95;59.49;96507.88;6114525;29;19935;-71
2023/07/27 02:02:53;;;;;;;;;;;;;;;19.04;59.47;96506.91;6127789;29;19927;-70
2023/07/27 02:05:55;;;;;;;;;;;;;;;19.12;59.49;96508.78;6127226;29;19927;-70
2023/07/27 02:09:00;;;;;;;;;;;;;;;19.22;59.05;96510.31;6127930;29;20017;-70
2023/07/27 02:12:06;;;;;;;;;;;;;;;19.33;59.19;96508.34;6128461;29;20110;-70
2023/07/27 02:15:15;;;;;;;;;;;;;;;19.44;58.72;96508.03;6127817;29;19926;-70
2023/07/27 02:18:19;;;;;;;;;;;;;;;19.53;58.40;96512.38;6127032;29;19933;-71
2023/07/27 02:21:24;;;;;;;;;;;;;;;19.62;58.40;96510.59;6110243;29;20425;-70
2023/07/27 02:24:25;;;;;;;;;;;;;;;19.70;58.51;96508.78;6127927;29;19934;-71
2023/07/27 02:27:29;;;;;;;;;;;;;;;19.81;58.24;96504.09;6110742;29;19927;-70
2023/07/27 02:30:32;;;;;;;;;;;;;;;19.90;58.17;96513.78;6127534;29;19927;-71
2023/07/27 02:33:33;;;;;;;;;;;;;;;19.99;57.30;96518.16;6126957;29;19926;-71
2023/07/27 02:36:39;;;;;;;;;;;;;;;20.08;57.96;96517.13;6127369;29;19927;-71
2023/07/27 02:39:45;;;;;;;;;;;;;;;20.17;57.62;96515.28;6127152;29;19927;-71
2023/07/27 02:42:48;;;;;;;;;;;;;;;20.27;57.28;96515.09;6126285;29;19942;-71
2023/07/27 02:45:56;;;;;;;;;;;;;;;20.38;57.19;96533.47;6126712;29;19933;-71
2023/07/27 02:48:57;;;;;;;;;;;;;;;20.53;56.54;96529.16;6109297;29;19926;-70
2023/07/27 02:52:01;;;;;;;;;;;;;;;20.66;56.56;96535.78;6126861;29;19926;-71
2023/07/27 02:55:04;;;;;;;;;;;;;;;20.78;56.68;96539.78;6095010;29;20010;-71
2023/07/27 02:58:08;;;;;;;;;;;;;;;20.87;56.08;96533.41;6126005;29;19982;-70
2023/07/27 03:01:09;;;;;;;;;;;;;;;20.98;56.51;96545.59;6126630;29;19926;-71
2023/07/27 03:04:09;;;;;;;;;;;;;;;21.05;56.39;96544.69;6126478;29;20464;-71
2023/07/27 03:07:13;;;;;;;;;;;;;;;21.16;56.32;96545.34;6126538;29;19923;-72
2023/07/27 03:10:14;;;;;;;;;;;;;;;21.27;56.06;96556.50;6125887;29;20408;-70
2023/07/27 03:13:18;;;;;;;;;;;;;;;21.41;55.54;96554.13;6126176;29;19927;-71
2023/07/27 03:16:21;;;;;;;;;;;;;;;21.53;55.50;96556.22;6109405;29;20422;-71
2023/07/27 03:19:22;;;;;;;;;;;;;;;21.65;55.23;96553.16;6126093;29;19922;-72
2023/07/27 03:22:23;;;;;;;;;;;;;;;21.78;54.61;96550.72;6125506;29;20419;-71
2023/07/27 03:25:25;;;;;;;;;;;;;;;21.89;54.42;96550.31;6125639;29;20305;-72
2023/07/27 03:28:31;;;;;;;;;;;;;;;22.03;54.19;96555.94;6125833;29;19927;-71
2023/07/27 03:31:33;;;;;;;;;;;;;;;22.15;53.81;96560.66;6126449;29;20392;-72
2023/07/27 03:34:39;;;;;;;;;;;;;;;22.27;53.84;96563.78;6125799;29;19999;-72
2023/07/27 03:37:45;;;;;;;;;;;;;;;22.38;53.53;96549.94;6125718;29;19927;-71
2023/07/27 03:40:46;;;;;;;;;;;;;;;22.49;53.39;96555.91;6108533;29;20451;-72
2023/07/27 03:43:52;;;;;;;;;;;;;;;22.63;52.91;96560.44;6125689;29;19926;-70
2023/07/27 03:46:58;;;;;;;;;;;;;;;22.78;52.73;96565.84;6109066;29;20319;-71
2023/07/27 03:49:59;;;;;;;;;;;;;;;22.89;52.90;96561.88;6124395;29;19950;-71
2023/07/27 03:53:03;;;;;;;;;;;;;;;23.03;52.10;96569.13;6125551;29;19926;-71
2023/07/27 03:56:05;;;;;;;;;;;;;;;23.19;52.06;96568.13;6125576;29;20026;-70
2023/07/27 03:59:08;;;;;;;;;;;;;;;23.36;51.98;96568.75;6125613;29;19927;-71
2023/07/27 04:02:12;;;;;;;;;;;;;;;23.54;51.40;96569.16;6125354;29;19927;-70
2023/07/27 04:05:15;;;;;;;;;;;;;;;23.73;51.28;96568.59;6124729;29;20325;-72
2023/07/27 04:08:19;;;;;;;;;;;;;;;23.87;51.13;96572.28;6125355;29;20373;-71
2023/07/27 04:11:22;;;;;;;;;;;;;;;24.03;50.58;96570.34;6125338;29;19926;-70
2023/07/27 04:14:23;;;;;;;;;;;;;;;24.16;50.50;96565.94;6124613;29;19931;-71
2023/07/27 04:17:26;;;;;;;;;;;;;;;24.33;49.93;96563.81;6124862;29;19926;-70
2023/07/27 04:20:30;;;;;;;;;;;;;;;24.51;49.78;96576.81;6125005;29;20316;-71
2023/07/27 04:23:31;;;;;;;;;;;;;;;24.69;49.25;96570.16;6124041;29;19931;-71
2023/07/27 04:26:34;;;;;;;;;;;;;;;24.87;48.82;96567.78;6124381;29;19927;-72
2023/07/27 04:29:40;;;;;;;;;;;;;;;25.13;48.56;96571.69;6124839;29;19926;-71
2023/07/27 04:32:41;;;;;;;;;;;;;;;25.38;47.87;96575.56;6124153;29;19927;-72
2023/07/27 04:35:42;;;;;;;;;;;;;;;25.69;47.37;96576.94;6107028;29;20083;-71
2023/07/27 04:38:45;;;;;;;;;;;;;;;26.01;46.92;96564.63;6124310;29;20021;-71
2023/07/27 04:41:46;;;;;;;;;;;;;;;26.60;46.00;96576.53;6124277;29;20337;-71
2023/07/27 04:44:48;;;;;;;;;;;;;;;28.56;42.46;96584.41;6123598;29;19938;-70
2023/07/27 04:47:49;;;;;;;;;;;;;;;31.29;38.47;96584.47;6123977;29;20013;-70
2023/07/27 04:50:51;;;;;;;;;;;;;;;33.63;34.84;96599.03;6123720;29;19929;-72
2023/07/27 04:53:54;;;;;;;;;;;;;;;35.73;32.43;96596.38;6124611;29;19950;-71
2023/07/27 04:56:58;;;;;;;;;;;;;;;37.95;29.34;96606.13;6124531;29;19926;-70
2023/07/27 05:00:01;;;;;;;;;;;;;;;39.84;28.71;96598.34;6124296;29;19947;-71
2023/07/27 05:03:02;;;;;;;;;;;;;;;42.17;27.10;96610.53;6122947;29;19959;-71
2023/07/27 05:06:06;;;;;;;;;;;;;;;44.13;24.84;96599.00;6124335;29;20001;-71
2023/07/27 05:09:11;;;;;;;;;;;;;;;45.57;23.93;96598.81;6124348;29;19927;-72
2023/07/27 05:12:12;;;;;;;;;;;;;;;46.48;24.21;96604.09;6122958;29;19930;-73
2023/07/27 05:15:16;;;;;;;;;;;;;;;47.42;18.56;96586.88;6124335;29;20320;-72
2023/07/27 05:18:18;;;;;;;;;;;;;;;47.05;22.91;96592.34;6106615;29;19986;-72
2023/07/27 05:21:22;;;;;;;;;;;;;;;46.44;19.96;96587.25;6123800;29;20269;-73
2023/07/27 05:24:26;;;;;;;;;;;;;;;45.91;22.78;96581.19;6124336;29;20357;-72
2023/07/27 05:27:27;;;;;;;;;;;;;;;44.49;21.53;96575.75;6105743;29;19966;-72
2023/07/27 05:30:31;;;;;;;;;;;;;;;42.94;23.11;96567.31;6124280;29;20304;-72
2023/07/27 05:33:33;;;;;;;;;;;;;;;41.16;24.10;96574.66;6123096;29;19934;-73
2023/07/27 05:36:36;;;;;;;;;;;;;;;40.24;24.11;96559.56;6123994;29;19926;-73
2023/07/27 05:39:37;;;;;;;;;;;;;;;39.59;23.14;96555.38;6127318;29;20449;-72
2023/07/27 05:42:43;;;;;;;;;;;;;;;39.67;21.96;96556.66;6128558;29;20351;-72
2023/07/27 05:45:45;;;;;;;;;;;;;;;39.92;22.04;96552.81;6128237;29;19934;-72
2023/07/27 05:48:48;;;;;;;;;;;;;;;41.03;21.62;96554.97;6128151;29;19927;-72
2023/07/27 05:51:52;;;;;;;;;;;;;;;42.78;18.64;96564.13;6128249;29;20568;-72
2023/07/27 05:54:55;;;;;;;;;;;;;;;44.77;19.15;96577.06;6127509;29;20017;-73
2023/07/27 05:57:59;;;;;;;;;;;;;;;46.74;16.62;96574.13;6127079;29;20319;-73
2023/07/27 06:01:03;;;;;;;;;;;;;;;47.44;15.92;96574.22;6127591;29;20317;-72
2023/07/27 06:04:09;;;;;;;;;;;;;;;48.46;15.84;96574.31;6127800;29;20401;-73
2023/07/27 06:07:13;;;;;;;;;;;;;;;49.21;14.97;96579.28;6127935;29;19930;-73
2023/07/27 06:10:19;;;;;;;;;;;;;;;49.88;12.82;96576.66;6127803;29;20421;-72
2023/07/27 06:13:21;;;;;;;;;;;;;;;50.76;13.35;96579.06;6127306;29;19933;-71
2023/07/27 06:16:25;;;;;;;;;;;;;;;52.13;13.17;96573.16;6126919;29;19931;-72
2023/07/27 06:19:29;;;;;;;;;;;;;;;53.28;12.17;96570.59;6111192;29;20297;-72
2023/07/27 06:22:34;;;;;;;;;;;;;;;53.90;10.93;96567.16;6127642;29;19967;-72
2023/07/27 06:25:40;;;;;;;;;;;;;;;55.17;12.01;96576.69;6126687;29;19949;-72
2023/07/27 06:28:47;;;;;;;;;;;;;;;56.16;12.31;96567.91;6127535;29;19952;-71
2023/07/27 06:31:53;;;;;;;;;;;;;;;57.60;10.51;96571.72;6110866;29;19926;-73
2023/07/27 06:34:59;;;;;;;;;;;;;;;58.59;11.57;96582.53;6125313;29;19954;-71
2023/07/27 06:38:00;;;;;;;;;;;;;;;57.83;10.91;96570.34;6140243;29;19949;-71
2023/07/27 06:41:06;;;;;;;;;;;;;;;56.08;10.96;96555.00;6127372;29;20413;-72
2023/07/27 06:44:12;;;;;;;;;;;;;;;54.66;13.23;96557.19;6110357;29;20393;-72
2023/07/27 06:47:16;;;;;;;;;;;;;;;55.38;9.56;96553.41;6125634;29;20419;-72
2023/07/27 06:50:20;;;;;;;;;;;;;;;56.38;10.74;96554.56;6126303;29;19927;-72
2023/07/27 06:53:24;;;;;;;;;;;;;;;57.12;9.21;96555.44;6127006;29;20022;-73
2023/07/27 06:56:28;;;;;;;;;;;;;;;57.12;9.39;96561.91;6126807;29;19982;-73
2023/07/27 06:59:32;;;;;;;;;;;;;;;56.44;9.18;96562.19;6127069;29;20413;-72
2023/07/27 07:02:35;;;;;;;;;;;;;;;57.00;9.53;96558.78;6109747;29;20085;-73
2023/07/27 07:05:37;;;;;;;;;;;;;;;58.57;8.86;96562.28;6139899;29;19926;-72
2023/07/27 07:08:40;;;;;;;;;;;;;;;59.83;8.73;96570.63;6155058;29;19927;-73
2023/07/27 07:11:44;;;;;;;;;;;;;;;60.69;7.26;96571.88;6156261;29;19913;-72
2023/07/27 07:14:46;;;;;;;;;;;;;;;60.97;8.17;96564.00;6157234;29;19990;-72
2023/07/27 07:17:51;;;;;;;;;;;;;;;61.59;6.46;96575.63;6158257;29;19969;-72
2023/07/27 07:21:00;;;;;;;;;;;;;;;60.72;6.37;96564.50;6159195;29;19930;-72
2023/07/27 07:24:03;;;;;;;;;;;;;;;60.49;6.66;96563.38;6157544;29;19926;-72
2023/07/27 07:30:31;;;;;;;;;;;;;;;61.32;7.23;96555.91;6444627;23;19997;-72
2023/07/27 08:02:09;;;;;;;;;;;;;;;61.63;6.45;96540.09;7157334;23;19940;-73
2023/07/27 08:05:13;;;;;;;;;;;;;;;61.88;6.26;96532.97;6156085;29;19954;-72
2023/07/27 08:08:17;;;;;;;;;;;;;;;61.34;6.06;96536.34;6156391;29;19917;-72
2023/07/27 08:11:20;;;;;;;;;;;;;;;59.97;6.88;96516.44;6152972;29;19927;-72
2023/07/27 08:14:24;;;;;;;;;;;;;;;59.30;6.81;96513.53;6152644;29;19922;-72
2023/07/27 08:17:27;;;;;;;;;;;;;;;58.49;6.37;96498.44;6137304;29;19942;-72
2023/07/27 08:20:31;;;;;;;;;;;;;;;58.58;7.24;96491.03;6150844;29;19927;-73
2023/07/27 08:23:35;;;;;;;;;;;;;;;59.39;6.15;96495.94;6154987;29;19998;-72
2023/07/27 08:26:41;;;;;;;;;;;;;;;59.31;6.87;96492.41;6154282;29;19946;-73
2023/07/27 08:29:42;;;;;;;;;;;;;;;57.86;6.92;96478.91;6118122;29;19927;-73
2023/07/27 08:32:46;;;;;;;;;;;;;;;57.87;7.03;96472.84;6124657;29;19934;-72
2023/07/27 08:35:48;;;;;;;;;;;;;;;57.87;7.24;96486.16;6124714;29;19933;-73
2023/07/27 08:38:49;;;;;;;;;;;;;;;56.57;7.26;96465.69;6125053;29;20021;-74
2023/07/27 08:41:55;;;;;;;;;;;;;;;56.03;7.18;96466.69;6124575;29;19926;-72
2023/07/27 08:44:59;;;;;;;;;;;;;;;53.26;8.68;96465.38;6123107;29;19934;-72
2023/07/27 08:48:05;;;;;;;;;;;;;;;51.90;9.59;96450.53;6124754;29;19923;-73
2023/07/27 08:51:09;;;;;;;;;;;;;;;50.62;10.36;96452.75;6124436;29;20311;-73
2023/07/27 08:54:12;;;;;;;;;;;;;;;50.82;10.27;96450.75;6124308;29;19933;-72
2023/07/27 08:57:13;;;;;;;;;;;;;;;52.26;9.43;96448.19;6107163;29;19927;-72
2023/07/27 09:00:15;;;;;;;;;;;;;;;54.45;8.17;96457.31;6124407;29;20312;-73
2023/07/27 09:03:16;;;;;;;;;;;;;;;56.18;7.27;96452.53;6124298;29;19926;-72
2023/07/27 09:06:39;;;;;;;;;;;;;;;55.75;7.38;96441.34;6107523;29;19927;-72
2023/07/27 09:09:52;;;;;;;;;;;;;;;55.46;7.80;96449.03;6124477;29;19927;-73
2023/07/27 09:12:58;;;;;;;;;;;;;;;55.07;8.05;96442.19;6127298;29;20448;-72
2023/07/27 09:16:02;;;;;;;;;;;;;;;55.52;8.24;96444.56;6129067;29;19927;-73
2023/07/27 09:19:06;;;;;;;;;;;;;;;56.16;7.87;96454.94;6129333;29;19927;-72
2023/07/27 09:22:13;;;;;;;;;;;;;;;55.14;8.15;96436.53;6128852;29;19927;-73
2023/07/27 09:25:21;;;;;;;;;;;;;;;53.46;9.26;96423.75;6128698;29;19927;-73
2023/07/27 09:28:25;;;;;;;;;;;;;;;52.94;9.01;96424.50;6128809;29;20028;-72
2023/07/27 09:31:30;;;;;;;;;;;;;;;53.59;8.92;96427.84;6128715;29;19934;-73
2023/07/27 09:34:34;;;;;;;;;;;;;;;53.75;8.78;96434.00;6111162;29;19935;-72
2023/07/27 09:37:41;;;;;;;;;;;;;;;53.36;8.48;96420.47;6128348;29;19927;-72
2023/07/27 09:40:48;;;;;;;;;;;;;;;53.90;8.23;96414.38;6111759;29;19930;-72
2023/07/27 09:43:57;;;;;;;;;;;;;;;53.55;7.96;96429.84;6128406;29;20489;-72
2023/07/27 09:47:01;;;;;;;;;;;;;;;49.20;10.03;96412.00;6128509;29;19926;-73
2023/07/27 09:50:02;;;;;;;;;;;;;;;45.65;12.17;96408.19;6128218;29;19937;-72
2023/07/27 09:53:09;;;;;;;;;;;;;;;43.35;14.01;96413.13;6111306;29;19927;-73
2023/07/27 09:56:14;;;;;;;;;;;;;;;44.81;12.82;96410.69;6127728;29;19957;-73
2023/07/27 09:59:19;;;;;;;;;;;;;;;44.89;13.22;96415.41;6127712;29;19927;-72
2023/07/27 10:02:22;;;;;;;;;;;;;;;42.42;15.60;96408.47;6127587;29;20057;-73
2023/07/27 10:05:23;;;;;;;;;;;;;;;40.10;17.45;96416.97;6127846;29;20033;-72
2023/07/27 10:08:29;;;;;;;;;;;;;;;38.35;18.98;96417.38;6127774;29;19930;-73
2023/07/27 10:11:51;;;;;;;;;;;;;;;37.43;19.51;96417.97;6127689;29;20021;-73
2023/07/27 10:15:28;;;;;;;;;;;;;;;36.55;20.55;96424.84;6127754;29;19927;-72
2023/07/27 10:18:38;;;;;;;;;;;;;;;36.79;20.92;96410.53;6061758;29;19930;-72
2023/07/27 10:21:46;;;;;;;;;;;;;;;38.56;18.72;96412.56;6127670;29;19927;-72
2023/07/27 10:24:51;;;;;;;;;;;;;;;39.78;17.73;96405.91;6126653;29;20348;-72
2023/07/27 10:27:56;;;;;;;;;;;;;;;41.62;16.35;96410.88;6110758;29;19937;-72
2023/07/27 10:31:16;;;;;;;;;;;;;;;43.45;15.06;96410.03;6127478;29;19926;-73
2023/07/27 10:34:17;;;;;;;;;;;;;;;44.93;14.04;96419.16;6110530;29;20407;-73
2023/07/27 10:37:19;;;;;;;;;;;;;;;45.81;13.30;96420.34;6127398;29;19998;-72
2023/07/27 10:40:29;;;;;;;;;;;;;;;46.82;12.80;96415.66;6110118;29;19926;-71
2023/07/27 10:43:35;;;;;;;;;;;;;;;47.41;12.47;96412.50;6127265;29;19966;-72
2023/07/27 10:46:46;;;;;;;;;;;;;;;47.49;12.39;96419.09;6126782;29;19927;-71
2023/07/27 10:49:49;;;;;;;;;;;;;;;46.55;12.69;96409.56;6126910;29;19926;-72
2023/07/27 10:52:53;;;;;;;;;;;;;;;44.01;14.40;96404.78;6126916;29;19927;-73
2023/07/27 10:55:55;;;;;;;;;;;;;;;42.01;15.73;96390.91;6126900;29;20541;-73
2023/07/27 10:59:01;;;;;;;;;;;;;;;40.69;16.72;96389.00;6126931;29;20355;-72
2023/07/27 11:02:04;;;;;;;;;;;;;;;39.37;18.17;96376.16;6129457;28;19935;-73
2023/07/27 11:05:07;;;;;;;;;;;;;;;38.91;18.25;96372.06;6174513;28;19926;-72
2023/07/27 11:08:13;;;;;;;;;;;;;;;39.63;17.50;96376.63;6174428;28;19926;-73
2023/07/27 11:11:16;;;;;;;;;;;;;;;41.14;16.48;96383.72;6173885;28;20308;-72
2023/07/27 11:14:19;;;;;;;;;;;;;;;42.34;15.59;96383.19;6173746;28;19926;-72
2023/07/27 11:17:26;;;;;;;;;;;;;;;43.12;14.70;96380.00;6173895;28;19922;-72
2023/07/27 11:20:45;;;;;;;;;;;;;;;42.54;15.12;96375.50;6174074;28;19930;-73
2023/07/27 11:23:47;;;;;;;;;;;;;;;42.22;15.82;96369.09;6173537;28;19929;-71
2023/07/27 11:26:49;;;;;;;;;;;;;;;42.42;15.67;96372.50;6173399;28;19933;-72
2023/07/27 11:29:53;;;;;;;;;;;;;;;42.35;15.74;96368.25;6173775;28;19933;-72
2023/07/27 11:32:58;;;;;;;;;;;;;;;42.01;15.96;96365.22;6173206;28;20368;-73
2023/07/27 11:36:02;;;;;;;;;;;;;;;42.28;15.51;96359.53;6156060;28;19926;-71
2023/07/27 11:39:08;;;;;;;;;;;;;;;42.34;15.51;96352.78;6173327;28;20013;-71
2023/07/27 11:42:13;;;;;;;;;;;;;;;41.93;16.07;96345.50;6173206;28;19926;-71
2023/07/27 11:45:19;;;;;;;;;;;;;;;41.25;16.61;96346.50;6156510;28;20396;-72
2023/07/27 11:48:27;;;;;;;;;;;;;;;41.19;16.66;96359.59;6173429;28;19922;-72
2023/07/27 11:51:33;;;;;;;;;;;;;;;40.96;16.55;96350.34;6173288;28;19930;-72
2023/07/27 11:54:37;;;;;;;;;;;;;;;40.46;17.02;96346.66;6139699;28;20320;-72
2023/07/27 11:57:44;;;;;;;;;;;;;;;39.98;17.27;96336.72;6173255;28;19922;-72
2023/07/27 12:00:50;;;;;;;;;;;;;;;39.44;17.92;96333.41;6172865;28;19933;-72
2023/07/27 12:03:54;;;;;;;;;;;;;;;39.33;17.91;96326.41;6142595;28;19926;-72
2023/07/27 12:06:57;;;;;;;;;;;;;;;39.09;18.07;96337.44;6125310;29;20026;-72
2023/07/27 12:10:00;;;;;;;;;;;;;;;39.15;18.47;96335.44;6125300;29;19926;-72
2023/07/27 12:13:07;;;;;;;;;;;;;;;39.27;18.20;96331.13;6124968;29;19931;-72
2023/07/27 12:16:10;;;;;;;;;;;;;;;39.44;18.30;96327.09;6108133;29;20384;-73
2023/07/27 12:19:16;;;;;;;;;;;;;;;39.43;18.07;96323.50;6107712;29;19933;-73
2023/07/27 12:22:24;;;;;;;;;;;;;;;39.30;18.41;96321.47;6124858;29;20429;-72
2023/07/27 12:25:28;;;;;;;;;;;;;;;39.10;18.70;96319.81;6124709;29;19927;-72
2023/07/27 12:28:32;;;;;;;;;;;;;;;38.97;18.97;96312.28;6125090;29;19923;-72
2023/07/27 12:31:38;;;;;;;;;;;;;;;38.78;19.16;96310.28;6124597;29;20025;-72
2023/07/27 12:34:41;;;;;;;;;;;;;;;38.46;19.37;96301.88;6124463;29;20304;-72
2023/07/27 12:37:45;;;;;;;;;;;;;;;38.18;19.15;96296.09;6107740;29;19959;-72
2023/07/27 12:40:50;;;;;;;;;;;;;;;38.25;19.23;96293.03;6124757;29;20033;-73
2023/07/27 12:43:52;;;;;;;;;;;;;;;38.31;19.49;96289.91;6107726;29;19926;-74
2023/07/27 12:46:59;;;;;;;;;;;;;;;38.00;19.77;96296.84;6092073;29;20305;-72
2023/07/27 12:50:03;;;;;;;;;;;;;;;37.89;20.18;96294.16;6124205;29;19927;-71
2023/07/27 12:53:09;;;;;;;;;;;;;;;37.60;20.09;96299.63;6124389;29;19927;-72
2023/07/27 12:56:13;;;;;;;;;;;;;;;37.19;20.45;96296.28;6124326;29;19926;-72
2023/07/27 12:59:19;;;;;;;;;;;;;;;36.94;20.34;96299.97;6124408;29;19934;-74
2023/07/27 13:02:21;;;;;;;;;;;;;;;36.45;21.22;96304.25;6125766;29;19934;-73
2023/07/27 13:05:32;;;;;;;;;;;;;;;35.79;21.29;96307.06;6131760;29;19926;-72
2023/07/27 13:08:33;;;;;;;;;;;;;;;35.44;21.73;96304.03;6148084;29;19926;-73
2023/07/27 13:11:36;;;;;;;;;;;;;;;35.18;21.98;96302.31;6131188;29;20393;-72
2023/07/27 13:14:43;;;;;;;;;;;;;;;35.07;22.14;96306.94;6148196;29;19982;-74
2023/07/27 13:17:47;;;;;;;;;;;;;;;34.77;22.66;96297.53;6148012;29;19926;-72
2023/07/27 13:20:50;;;;;;;;;;;;;;;34.52;22.81;96305.59;6147636;29;20024;-73
2023/07/27 13:23:57;;;;;;;;;;;;;;;34.13;23.16;96292.25;6147428;29;19930;-73
2023/07/27 13:27:03;;;;;;;;;;;;;;;33.83;23.54;96303.75;6148059;29;19926;-73
2023/07/27 13:30:07;;;;;;;;;;;;;;;33.40;23.91;96295.44;6147734;29;19926;-73
2023/07/27 13:33:09;;;;;;;;;;;;;;;33.04;24.34;96302.47;6146581;29;19973;-73
2023/07/27 13:36:10;;;;;;;;;;;;;;;32.94;24.05;96302.31;6130629;29;19926;-72
2023/07/27 13:39:11;;;;;;;;;;;;;;;32.91;24.62;96298.19;6147125;29;20344;-73
2023/07/27 13:42:14;;;;;;;;;;;;;;;32.71;24.80;96295.25;6147576;29;19926;-72
2023/07/27 13:45:21;;;;;;;;;;;;;;;32.62;25.85;96301.13;6147774;29;20428;-72
2023/07/27 13:48:26;;;;;;;;;;;;;;;32.69;24.54;96302.84;6147670;29;19926;-71
2023/07/27 13:51:29;;;;;;;;;;;;;;;32.53;24.91;96297.22;6147311;29;19927;-71
2023/07/27 13:54:33;;;;;;;;;;;;;;;32.47;25.44;96298.22;6147463;29;19930;-72
2023/07/27 13:57:34;;;;;;;;;;;;;;;32.32;25.24;96298.78;6146926;28;19926;-72
2023/07/27 14:00:38;;;;;;;;;;;;;;;32.16;25.96;96300.50;6150893;29;19926;-73
2023/07/27 14:03:42;;;;;;;;;;;;;;;31.90;26.18;96307.41;6134670;29;19926;-73
2023/07/27 14:06:44;;;;;;;;;;;;;;;31.71;26.52;96301.41;6150579;29;20386;-72
2023/07/27 14:09:49;;;;;;;;;;;;;;;31.53;26.85;96309.81;6151577;29;20020;-71
2023/07/27 14:12:54;;;;;;;;;;;;;;;31.36;27.41;96314.41;6151342;29;19930;-71
2023/07/27 14:16:03;;;;;;;;;;;;;;;30.95;28.34;96319.06;6151459;29;19926;-72
2023/07/27 14:19:05;;;;;;;;;;;;;;;30.62;28.85;96315.09;6133971;29;19922;-71
2023/07/27 14:22:08;;;;;;;;;;;;;;;30.35;29.62;96317.53;6151519;29;19926;-72
2023/07/27 14:25:12;;;;;;;;;;;;;;;30.24;30.16;96330.03;6151020;29;19944;-72
2023/07/27 14:28:17;;;;;;;;;;;;;;;30.08;30.48;96336.16;6151117;29;20349;-72
2023/07/27 14:31:23;;;;;;;;;;;;;;;29.91;30.47;96336.84;6151368;29;19931;-72
2023/07/27 14:34:27;;;;;;;;;;;;;;;29.82;31.36;96335.53;6150564;29;20490;-71
2023/07/27 14:37:33;;;;;;;;;;;;;;;29.80;31.47;96339.56;6134269;29;19926;-71
2023/07/27 14:40:34;;;;;;;;;;;;;;;29.71;32.03;96344.50;6150853;29;19923;-72
2023/07/27 14:43:35;;;;;;;;;;;;;;;29.69;32.48;96343.88;6150960;29;19927;-72
2023/07/27 14:46:40;;;;;;;;;;;;;;;29.67;32.68;96351.44;6150735;29;19926;-72
2023/07/27 14:49:42;;;;;;;;;;;;;;;29.60;33.01;96345.25;6150572;29;19933;-72
2023/07/27 14:52:48;;;;;;;;;;;;;;;29.64;33.80;96341.03;6133916;29;19926;-71
2023/07/27 14:55:55;;;;;;;;;;;;;;;29.35;33.49;96348.97;6133063;29;19966;-71
2023/07/27 14:58:58;;;;;;;;;;;;;;;29.32;34.25;96350.25;6150400;29;19926;-71
2023/07/27 15:02:05;;;;;;;;;;;;;;;29.21;34.12;96342.09;6132727;29;19934;-72
2023/07/27 15:05:07;;;;;;;;;;;;;;;29.18;34.59;96358.78;6149681;29;20048;-73
2023/07/27 15:08:10;;;;;;;;;;;;;;;29.13;34.63;96355.94;6150313;29;20396;-72
2023/07/27 15:11:19;;;;;;;;;;;;;;;29.12;34.53;96374.09;6149653;28;19932;-72
2023/07/27 15:14:23;;;;;;;;;;;;;;;29.09;35.16;96361.81;6149987;29;20265;-72
2023/07/27 15:17:24;;;;;;;;;;;;;;;29.11;34.46;96352.66;6150187;29;19933;-71
2023/07/27 15:20:25;;;;;;;;;;;;;;;29.06;34.73;96359.56;6148754;29;19933;-71
2023/07/27 15:23:29;;;;;;;;;;;;;;;28.96;34.86;96361.13;6149979;29;19926;-71
2023/07/27 15:26:31;;;;;;;;;;;;;;;28.80;34.81;96362.59;6143033;29;20337;-72
2023/07/27 15:29:38;;;;;;;;;;;;;;;28.53;35.45;96362.91;6150216;29;19926;-71
2023/07/27 15:32:43;;;;;;;;;;;;;;;28.27;36.35;96368.56;6149726;29;19934;-73
2023/07/27 15:35:46;;;;;;;;;;;;;;;28.06;36.73;96362.53;6149333;29;20427;-72
2023/07/27 15:38:47;;;;;;;;;;;;;;;27.92;36.34;96367.22;6131936;29;19926;-71
2023/07/27 15:41:48;;;;;;;;;;;;;;;27.80;36.58;96369.00;6149073;29;19933;-72
2023/07/27 15:44:51;;;;;;;;;;;;;;;27.71;36.50;96368.41;6149383;29;19926;-72
2023/07/27 15:47:52;;;;;;;;;;;;;;;27.52;36.81;96372.09;6148994;29;19937;-72
2023/07/27 15:51:04;;;;;;;;;;;;;;;27.39;37.16;96372.16;6149348;29;20025;-73
2023/07/27 15:54:11;;;;;;;;;;;;;;;27.22;37.59;96367.28;6147798;29;19933;-71
2023/07/27 15:57:14;;;;;;;;;;;;;;;27.10;37.42;96363.56;6132967;29;19930;-71
2023/07/27 16:00:18;;;;;;;;;;;;;;;27.01;38.35;96362.19;6148995;29;19927;-72
2023/07/27 16:03:21;;;;;;;;;;;;;;;26.94;39.46;96369.47;6139123;29;19933;-73
2023/07/27 16:06:22;;;;;;;;;;;;;;;26.71;39.99;96368.09;6125263;29;19927;-72
2023/07/27 16:09:27;;;;;;;;;;;;;;;26.53;40.96;96367.97;6125300;29;20360;-74
2023/07/27 16:12:31;;;;;;;;;;;;;;;26.43;40.50;96369.19;6125217;29;19930;-72
2023/07/27 16:15:38;;;;;;;;;;;;;;;26.31;40.50;96383.56;6108551;29;19926;-72
2023/07/27 16:18:41;;;;;;;;;;;;;;;26.22;40.56;96382.94;6124591;29;19927;-73
2023/07/27 16:21:45;;;;;;;;;;;;;;;26.18;41.30;96376.31;6124530;29;19934;-72
2023/07/27 16:24:52;;;;;;;;;;;;;;;25.94;41.46;96380.50;6124203;29;20408;-71
2023/07/27 16:27:56;;;;;;;;;;;;;;;25.81;42.20;96386.66;6125149;29;19927;-71
2023/07/27 16:30:59;;;;;;;;;;;;;;;25.64;42.35;96380.03;6124148;29;20393;-72